Terminal Aerodrome Forecast
Issued by NWS Cleveland, OH

Home | Current Version | Previous Version | Text Only | Print | Product List | Glossary Off
Versions: 1 2 3 4 5 6 7 8 9 10 11 12 13 14 15 16 17

000
FTUS41 KCLE 250520
TAFERI
TAF
KERI 250520Z 2506/2606 23007KT P6SM SCT060
     FM251400 25012G20KT P6SM BKN060
     FM251600 25015G22KT P6SM SCT050 PROB30 2516/2519 5SM -SHRA
     FM260000 24010KT P6SM BKN050=

USA.gov is the U.S. government's official web portal to all federal, state and local government web resources and services.